Archival Weather

Central Park

Central Park, New York (KNYC)

Report from: Thursday, September 21, 2023 11:51 PM EDT
Current time: Friday, February 23, 2024 2:13 PM EST

Current weather – Weather history – Daily summaries
Weather forecast

Temperature18.3°C (64.9°F)
Dew point11.1°C (52.0°F)
Winds 4 kts (2.1 m/s, 4.6 mph) North-Northeast (20°)
Visibility10 mi. (16.1 km)
Clouds Sky clear
Altimeter30.31 in.Hg (1026 mB)
Relative humidity63 %
Density altitude159 ft. (49 m)
Sea-level pressure102.6 kPa (1026 mB, 30.29 in.Hg)
Remarks Fully automated report
System requires maintenance
Automated weather observing station with precipitation discriminator
Flight conditions Visual Meteorological Conditions
Raw dataKNYC 220351Z AUTO 02004KT 10SM CLR 18/11 A3031 RMK AO2 SLP256 T01830111 $
An error has occurred. This application may no longer respond until reloaded. Reload 🗙